FABM

Bethlehem Airport

Bethlehem, South Africa
METAR FABM 190856Z 30014KT CAVOK 28/M07 Q1021
Observed Flight Rules
Sep-19 @ 08:56 UTC (16 hours ago) Visual Flight Rules
Wind Visibility Clouds
300° at 14 knots 10,000+ meters
  • Clear skies
Temperatures Readings
Current 28°C / 82°F
Dewpoint -7°C / 19°F
Humidity 9%
Altimeter 30.15" Hg
Pressure 1021 hPa
Elevation 1682
METAR FABM 190856Z 30014KT CAVOK 28/M07 Q1021
Observed Flight Rules
Sep-19 @ 08:56 UTC
(16 hours ago)
VFR
Wind Visibility
300° at 14 knots 10,000+ meters
Clouds
  • Clear skies
Temperature Dewpoint
28°C / 82°F -7°C / 19°F
Humidity Altimeter Pressure
9% 30.15" Hg 1021 hPa